Time;durP1;ratioP1;P1;durP2;ratioP2;P2;SDS_P1;SDS_P2;PMS_P1;PMS_P2;Temp;Humidity;BMP_temperature;BMP_pressure;BME280_temperature;BME280_humidity;BME280_pressure;Samples;Min_cycle;Max_cycle;Signal;HPM_P1;HPM_P2
2021/06/17 00:01:53;;;;;;;4.10;3.80;;;20.40;70.50;;;;;;6298565;28;20229;-57
2021/06/17 00:04:56;;;;;;;3.20;3.00;;;20.30;70.50;;;;;;6298446;28;20279;-58
2021/06/17 00:08:07;;;;;;;3.77;3.50;;;20.30;70.80;;;;;;6300729;28;20560;-56
2021/06/17 00:11:10;;;;;;;3.67;3.47;;;20.30;71.10;;;;;;6302776;28;20187;-56
2021/06/17 00:14:13;;;;;;;3.87;3.57;;;20.20;71.00;;;;;;6303078;28;20548;-56
2021/06/17 00:17:18;;;;;;;4.23;3.83;;;20.20;71.20;;;;;;6302248;28;20560;-56
2021/06/17 00:20:23;;;;;;;3.67;3.17;;;20.20;71.40;;;;;;6302760;28;20261;-56
2021/06/17 00:23:28;;;;;;;5.73;4.17;;;20.10;71.80;;;;;;6302197;28;20219;-56
2021/06/17 00:26:31;;;;;;;4.03;3.63;;;20.00;71.80;;;;;;6302021;28;20560;-56
2021/06/17 00:29:34;;;;;;;3.73;3.43;;;20.00;72.30;;;;;;6301956;28;20226;-56
2021/06/17 00:32:37;;;;;;;4.53;3.23;;;19.90;73.20;;;;;;6302328;28;20225;-56
2021/06/17 00:35:41;;;;;;;3.80;3.50;;;19.90;72.50;;;;;;6278449;28;20226;-56
2021/06/17 00:38:46;;;;;;;4.00;3.70;;;19.90;72.80;;;;;;6302153;28;20234;-64
2021/06/17 00:41:49;;;;;;;3.20;2.90;;;19.80;73.50;;;;;;6302221;28;20237;-60
2021/06/17 00:44:52;;;;;;;3.50;3.20;;;19.80;72.90;;;;;;6302061;28;20227;-60
2021/06/17 00:47:56;;;;;;;3.70;3.40;;;19.80;73.10;;;;;;6302037;28;20289;-60
2021/06/17 00:51:01;;;;;;;4.03;3.63;;;19.80;73.00;;;;;;6301388;28;20703;-63
2021/06/17 00:54:06;;;;;;;5.30;3.90;;;19.70;73.00;;;;;;6301779;28;20241;-63
2021/06/17 00:57:10;;;;;;;3.70;3.43;;;19.80;73.30;;;;;;6301273;28;20683;-63
2021/06/17 01:00:17;;;;;;;3.73;3.43;;;19.80;73.40;;;;;;6301394;28;20239;-60
2021/06/17 01:03:21;;;;;;;4.07;3.63;;;19.70;73.60;;;;;;6299654;28;20239;-60
2021/06/17 01:06:25;;;;;;;4.07;3.73;;;19.60;74.10;;;;;;6299796;28;20231;-60
2021/06/17 01:09:46;;;;;;;4.33;3.93;;;19.60;74.10;;;;;;6289829;28;20725;-59
2021/06/17 01:13:04;;;;;;;3.50;3.20;;;19.60;74.20;;;;;;6276814;28;20216;-61
2021/06/17 01:16:23;;;;;;;3.87;3.57;;;19.60;74.00;;;;;;6279468;28;20231;-60
2021/06/17 01:19:35;;;;;;;3.90;3.60;;;19.50;74.00;;;;;;6283595;28;20227;-60
2021/06/17 01:22:50;;;;;;;4.00;3.70;;;19.60;74.30;;;;;;6276276;28;20242;-60
2021/06/17 01:26:09;;;;;;;4.63;3.43;;;19.50;74.30;;;;;;6276897;28;20242;-59
2021/06/17 01:29:22;;;;;;;3.97;3.67;;;19.50;74.70;;;;;;6301232;28;20265;-59
2021/06/17 01:32:27;;;;;;;5.07;4.10;;;19.50;74.80;;;;;;6300748;28;20227;-58
2021/06/17 01:35:35;;;;;;;4.37;4.00;;;19.40;75.00;;;;;;6300602;28;20229;-65
2021/06/17 01:38:39;;;;;;;3.60;3.30;;;19.40;75.50;;;;;;6296125;28;20246;-58
2021/06/17 01:41:46;;;;;;;4.23;3.93;;;19.40;75.50;;;;;;6300218;28;20687;-57
2021/06/17 01:44:53;;;;;;;4.47;4.07;;;19.30;75.60;;;;;;6300123;28;20587;-56
2021/06/17 01:47:58;;;;;;;4.23;3.93;;;19.30;75.90;;;;;;6299643;28;20235;-55
2021/06/17 01:51:02;;;;;;;4.47;4.07;;;19.20;76.20;;;;;;6300323;28;20245;-64
2021/06/17 01:54:06;;;;;;;5.20;4.30;;;19.20;76.70;;;;;;6300332;28;20227;-60
2021/06/17 01:57:10;;;;;;;6.73;3.90;;;19.20;77.00;;;;;;6300079;28;20241;-60
2021/06/17 02:00:16;;;;;;;4.87;4.40;;;19.20;77.20;;;;;;6299922;28;20227;-60
2021/06/17 02:03:22;;;;;;;4.77;4.37;;;19.10;77.10;;;;;;6300490;28;20245;-60
2021/06/17 02:06:26;;;;;;;5.47;4.87;;;19.10;77.30;;;;;;6299975;28;20238;-60
2021/06/17 02:09:31;;;;;;;4.23;3.83;;;19.00;77.60;;;;;;6299939;28;20242;-60
2021/06/17 02:12:35;;;;;;;4.77;3.87;;;19.00;77.80;;;;;;6299684;28;20566;-61
2021/06/17 02:15:40;;;;;;;5.97;5.40;;;19.00;77.90;;;;;;6300238;28;20595;-60
2021/06/17 02:18:46;;;;;;;4.60;4.10;;;18.90;78.10;;;;;;6299785;28;20234;-60
2021/06/17 02:21:54;;;;;;;4.63;4.10;;;19.00;78.50;;;;;;6299748;28;20231;-59
2021/06/17 02:24:58;;;;;;;5.33;3.93;;;19.00;78.60;;;;;;6299630;28;20227;-59
2021/06/17 02:28:06;;;;;;;5.40;3.40;;;18.90;78.50;;;;;;6299520;28;20245;-59
2021/06/17 02:31:14;;;;;;;5.57;4.17;;;18.90;78.60;;;;;;6298889;28;20233;-61
2021/06/17 02:34:18;;;;;;;4.03;3.73;;;18.90;78.80;;;;;;6299829;28;20288;-60
2021/06/17 02:37:22;;;;;;;4.77;4.37;;;18.90;79.20;;;;;;6299192;28;20227;-60
2021/06/17 02:40:28;;;;;;;5.10;4.20;;;18.90;79.40;;;;;;6299440;28;20469;-60
2021/06/17 02:43:41;;;;;;;5.53;4.73;;;18.90;79.70;;;;;;6299100;28;20241;-60
2021/06/17 02:46:46;;;;;;;4.90;4.50;;;18.80;79.70;;;;;;6299044;28;20238;-60
2021/06/17 02:49:49;;;;;;;4.70;4.20;;;18.80;79.80;;;;;;6299148;28;20640;-60
2021/06/17 02:52:53;;;;;;;4.27;3.93;;;18.80;80.10;;;;;;6298790;28;20663;-59
2021/06/17 02:55:58;;;;;;;4.30;3.90;;;18.70;80.30;;;;;;6299529;28;20199;-59
2021/06/17 02:59:15;;;;;;;3.97;3.63;;;18.70;80.60;;;;;;6298971;28;20322;-59
2021/06/17 03:02:25;;;;;;;4.33;3.93;;;18.60;81.00;;;;;;6299470;28;20234;-60
2021/06/17 03:05:35;;;;;;;5.20;4.43;;;18.60;81.30;;;;;;6298896;28;20269;-60
2021/06/17 03:08:41;;;;;;;4.33;3.93;;;18.50;81.50;;;;;;6298462;28;20474;-60
2021/06/17 03:11:49;;;;;;;4.33;3.70;;;18.50;82.00;;;;;;6299202;28;20233;-60
2021/06/17 03:14:56;;;;;;;5.03;4.53;;;18.40;82.30;;;;;;6298847;28;20235;-60
2021/06/17 03:18:06;;;;;;;4.13;3.83;;;18.40;82.60;;;;;;6299241;28;20480;-60
2021/06/17 03:21:10;;;;;;;4.13;3.73;;;18.50;82.50;;;;;;6298941;28;20476;-60
2021/06/17 03:24:15;;;;;;;4.20;3.90;;;18.40;82.60;;;;;;6298894;28;20960;-60
2021/06/17 03:27:19;;;;;;;9.90;5.20;;;18.50;82.60;;;;;;6298546;28;20477;-60
2021/06/17 03:30:25;;;;;;;4.23;3.83;;;18.40;82.70;;;;;;6298382;28;20469;-60
2021/06/17 03:33:34;;;;;;;4.80;4.40;;;18.40;82.70;;;;;;6298230;28;20238;-59
2021/06/17 03:36:38;;;;;;;5.53;4.60;;;18.40;83.80;;;;;;6298453;28;20484;-60
2021/06/17 03:39:43;;;;;;;4.47;4.07;;;18.40;83.50;;;;;;6298335;28;20687;-60
2021/06/17 03:42:48;;;;;;;8.17;4.90;;;18.40;83.80;;;;;;6300859;28;20468;-60
2021/06/17 03:45:53;;;;;;;6.10;4.63;;;18.40;84.40;;;;;;6303298;28;20717;-60
2021/06/17 03:49:00;;;;;;;4.70;4.30;;;18.40;84.40;;;;;;6293675;28;20492;-60
2021/06/17 03:52:04;;;;;;;5.10;4.57;;;18.40;84.40;;;;;;6303133;28;20472;-60
2021/06/17 03:55:09;;;;;;;6.40;4.53;;;18.40;84.10;;;;;;6303235;28;20465;-61
2021/06/17 03:58:13;;;;;;;6.37;4.30;;;18.50;83.60;;;;;;6302623;28;20484;-60
2021/06/17 04:01:17;;;;;;;6.43;4.70;;;18.50;83.60;;;;;;6302769;28;20473;-61
2021/06/17 04:04:22;;;;;;;5.30;4.20;;;18.60;83.70;;;;;;6302888;28;20302;-60
2021/06/17 04:07:36;;;;;;;5.53;4.23;;;18.60;83.70;;;;;;6302864;28;20809;-60
2021/06/17 04:10:41;;;;;;;4.70;4.30;;;18.60;83.70;;;;;;6302875;28;20551;-60
2021/06/17 04:13:45;;;;;;;4.80;4.40;;;18.70;84.00;;;;;;6302561;28;20239;-60
2021/06/17 04:16:51;;;;;;;4.60;4.20;;;18.80;84.00;;;;;;6302452;28;20500;-60
2021/06/17 04:19:58;;;;;;;5.57;5.07;;;18.90;84.00;;;;;;6302448;28;20558;-59
2021/06/17 04:23:05;;;;;;;6.60;5.10;;;19.00;84.10;;;;;;6303002;28;20463;-60
2021/06/17 04:26:09;;;;;;;6.80;4.80;;;19.00;83.90;;;;;;6302257;28;20902;-60
2021/06/17 04:29:14;;;;;;;5.00;4.53;;;19.10;83.80;;;;;;6302637;28;20230;-60
2021/06/17 04:32:17;;;;;;;5.13;4.63;;;19.20;83.60;;;;;;6302264;28;20683;-60
2021/06/17 04:35:23;;;;;;;5.33;4.83;;;19.20;83.40;;;;;;6302253;28;20237;-60
2021/06/17 04:38:27;;;;;;;16.53;5.57;;;19.30;83.10;;;;;;6301873;28;20230;-60
2021/06/17 04:41:30;;;;;;;6.80;4.30;;;19.40;82.90;;;;;;6301975;28;20562;-60
2021/06/17 04:44:35;;;;;;;6.57;4.40;;;19.50;82.80;;;;;;6302297;28;20231;-60
2021/06/17 04:47:39;;;;;;;5.60;5.10;;;19.70;82.20;;;;;;6301596;28;20223;-60
2021/06/17 04:50:46;;;;;;;6.73;5.00;;;19.90;81.50;;;;;;6292585;28;20377;-60
2021/06/17 04:53:52;;;;;;;5.43;4.70;;;20.00;80.90;;;;;;6301581;28;20258;-61
2021/06/17 04:56:56;;;;;;;6.17;4.63;;;20.20;80.70;;;;;;6301835;28;20227;-60
2021/06/17 04:59:59;;;;;;;8.67;5.80;;;20.30;80.00;;;;;;6301756;28;20246;-60
2021/06/17 05:03:03;;;;;;;5.23;4.73;;;20.40;79.70;;;;;;6301991;28;20242;-60
2021/06/17 05:06:09;;;;;;;6.67;5.10;;;20.50;79.80;;;;;;6301599;28;20222;-62
2021/06/17 05:12:32;;;;;;;7.60;5.00;;;20.80;78.90;;;;;;6301753;28;20250;-60
2021/06/17 05:15:36;;;;;;;5.57;4.73;;;21.00;78.30;;;;;;6301375;28;20561;-60
2021/06/17 05:18:39;;;;;;;6.30;5.23;;;21.20;77.50;;;;;;6301079;28;20602;-60
2021/06/17 05:21:44;;;;;;;6.07;5.40;;;21.40;77.30;;;;;;6301192;28;20231;-60
2021/06/17 05:24:47;;;;;;;9.07;5.07;;;21.50;76.90;;;;;;6301103;28;20566;-61
2021/06/17 05:27:51;;;;;;;5.93;5.40;;;21.60;76.60;;;;;;6316377;28;20230;-60
2021/06/17 05:30:56;;;;;;;5.27;4.87;;;21.80;76.40;;;;;;6325921;28;20222;-60
2021/06/17 05:33:59;;;;;;;5.27;4.87;;;21.90;76.00;;;;;;6326314;28;20313;-60
2021/06/17 05:37:04;;;;;;;5.60;5.07;;;22.10;75.70;;;;;;6325677;28;20234;-59
2021/06/17 05:40:08;;;;;;;5.60;5.20;;;22.30;74.00;;;;;;6325914;28;20230;-63
2021/06/17 05:43:12;;;;;;;5.60;5.07;;;22.40;73.20;;;;;;6325917;28;20221;-60
2021/06/17 05:46:15;;;;;;;6.63;5.90;;;22.50;72.70;;;;;;6325719;28;20229;-60
2021/06/17 05:49:23;;;;;;;5.50;5.00;;;22.60;71.20;;;;;;6325590;28;20670;-61
2021/06/17 05:52:27;;;;;;;5.40;4.90;;;22.70;70.70;;;;;;6325951;28;20682;-56
2021/06/17 05:55:31;;;;;;;6.07;5.00;;;22.90;70.20;;;;;;6319407;28;20226;-56
2021/06/17 05:58:35;;;;;;;7.60;6.03;;;23.10;69.90;;;;;;6325062;28;20678;-57
2021/06/17 06:01:39;;;;;;;7.33;4.83;;;23.30;68.40;;;;;;6325344;28;20226;-56
2021/06/17 06:04:42;;;;;;;6.60;5.33;;;23.40;68.10;;;;;;6324451;28;20229;-57
2021/06/17 06:07:47;;;;;;;5.33;4.83;;;23.50;66.00;;;;;;6325242;28;20678;-57
2021/06/17 06:10:50;;;;;;;5.30;4.80;;;23.70;64.60;;;;;;6325013;28;20230;-56
2021/06/17 06:13:53;;;;;;;6.90;5.17;;;24.10;64.10;;;;;;6324985;28;20210;-57
2021/06/17 06:16:56;;;;;;;8.90;4.57;;;24.60;63.80;;;;;;6324663;28;20689;-56
2021/06/17 06:20:00;;;;;;;5.17;4.63;;;25.30;61.80;;;;;;6324901;28;20195;-57
2021/06/17 06:23:05;;;;;;;6.33;5.73;;;25.90;59.70;;;;;;6324787;28;20202;-56
2021/06/17 06:26:09;;;;;;;5.80;5.27;;;26.50;58.30;;;;;;6325146;28;20205;-57
2021/06/17 06:29:12;;;;;;;5.90;5.20;;;27.10;57.10;;;;;;6324648;28;20272;-58
2021/06/17 06:32:16;;;;;;;6.53;5.67;;;27.30;55.90;;;;;;6324659;28;20523;-58
2021/06/17 06:35:19;;;;;;;6.63;5.30;;;27.40;55.40;;;;;;6324496;28;20237;-58
2021/06/17 06:38:23;;;;;;;8.33;5.60;;;27.80;54.90;;;;;;6324746;28;20229;-57
2021/06/17 06:41:27;;;;;;;6.63;6.13;;;28.10;54.60;;;;;;6324483;28;20221;-57
2021/06/17 06:44:30;;;;;;;5.30;4.80;;;28.80;53.30;;;;;;6324611;28;20221;-57
2021/06/17 06:47:33;;;;;;;5.87;5.10;;;29.30;52.40;;;;;;6324572;28;20304;-58
2021/06/17 06:50:37;;;;;;;5.73;4.60;;;29.80;51.20;;;;;;6324471;28;20218;-63
2021/06/17 06:53:42;;;;;;;5.10;4.60;;;29.80;50.10;;;;;;6324939;28;20230;-60
2021/06/17 06:56:46;;;;;;;6.27;4.90;;;30.30;49.60;;;;;;6324290;28;20283;-57
2021/06/17 06:59:49;;;;;;;6.85;5.05;;;31.20;48.50;;;;;;6324176;28;20565;-60
2021/06/17 07:02:52;;;;;;;6.13;5.50;;;32.00;46.70;;;;;;6324191;28;20229;-62
2021/06/17 07:05:56;;;;;;;7.45;4.88;;;33.00;44.60;;;;;;6324053;28;20236;-64
2021/06/17 07:09:04;;;;;;;8.13;5.45;;;33.10;43.60;;;;;;6323960;28;20286;-61
2021/06/17 07:12:08;;;;;;;5.05;4.35;;;33.40;43.30;;;;;;6324334;28;20229;-62
2021/06/17 07:15:12;;;;;;;5.40;4.90;;;33.80;42.80;;;;;;6324196;28;20540;-57
2021/06/17 07:18:15;;;;;;;6.28;4.30;;;33.70;41.90;;;;;;6329037;28;20233;-58
2021/06/17 07:21:19;;;;;;;5.97;4.50;;;34.30;41.30;;;;;;6329249;28;20359;-61
2021/06/17 07:24:24;;;;;;;4.47;4.05;;;34.00;40.30;;;;;;6328932;28;20225;-61
2021/06/17 07:27:27;;;;;;;5.68;4.50;;;34.30;41.00;;;;;;6329018;28;20236;-60
2021/06/17 07:30:31;;;;;;;6.13;4.63;;;35.20;40.20;;;;;;6309558;28;20230;-65
2021/06/17 07:33:35;;;;;;;5.47;4.90;;;36.20;38.40;;;;;;6316860;28;20225;-65
2021/06/17 07:36:38;;;;;;;8.20;4.70;;;36.70;37.60;;;;;;6307680;28;20226;-61
2021/06/17 07:39:44;;;;;;;4.85;4.45;;;36.90;36.90;;;;;;6308429;28;20688;-60
2021/06/17 07:42:48;;;;;;;5.38;4.95;;;36.60;37.10;;;;;;6317695;28;20248;-65
2021/06/17 07:45:51;;;;;;;5.13;4.57;;;35.50;37.80;;;;;;6328503;28;20662;-61
2021/06/17 07:48:55;;;;;;;4.57;4.18;;;35.20;37.20;;;;;;6326163;28;20229;-58
2021/06/17 07:51:58;;;;;;;4.50;4.10;;;34.90;38.10;;;;;;6326510;28;20229;-57
2021/06/17 07:55:04;;;;;;;6.47;4.80;;;34.20;38.70;;;;;;6326140;28;20235;-61
2021/06/17 07:58:07;;;;;;;4.90;4.20;;;34.00;39.40;;;;;;6326152;28;20244;-60
2021/06/17 08:01:10;;;;;;;5.43;4.93;;;33.70;40.60;;;;;;6325732;28;20233;-60
2021/06/17 08:04:13;;;;;;;4.93;4.53;;;33.10;40.80;;;;;;6328059;28;20358;-60
2021/06/17 08:07:17;;;;;;;5.65;4.30;;;32.80;41.70;;;;;;6327894;28;20233;-57
2021/06/17 08:10:23;;;;;;;4.53;4.13;;;32.60;42.40;;;;;;6324390;28;20214;-60
2021/06/17 08:13:27;;;;;;;5.22;4.72;;;32.20;42.30;;;;;;6313901;28;20237;-57
2021/06/17 08:16:30;;;;;;;5.90;4.78;;;32.00;43.10;;;;;;6309606;28;20236;-57
2021/06/17 08:19:34;;;;;;;4.93;4.43;;;31.90;43.70;;;;;;6308190;28;20218;-57
2021/06/17 08:22:37;;;;;;;5.88;4.95;;;31.70;44.00;;;;;;6316376;28;20221;-57
2021/06/17 08:25:42;;;;;;;5.13;4.63;;;31.60;44.40;;;;;;6302945;28;20237;-57
2021/06/17 08:28:45;;;;;;;5.10;4.70;;;31.40;44.80;;;;;;6299400;28;20226;-57
2021/06/17 08:31:49;;;;;;;4.80;4.40;;;31.30;44.00;;;;;;6301544;28;20226;-56
2021/06/17 08:34:52;;;;;;;5.05;4.72;;;31.20;43.00;;;;;;6302040;28;20674;-57
2021/06/17 08:37:56;;;;;;;5.22;4.80;;;31.00;43.60;;;;;;6302185;28;20226;-57
2021/06/17 08:41:00;;;;;;;6.05;5.53;;;30.90;44.10;;;;;;6302169;28;20514;-58
2021/06/17 08:44:26;;;;;;;6.20;5.57;;;30.80;44.80;;;;;;6302424;28;20223;-57
2021/06/17 08:47:30;;;;;;;5.93;5.20;;;30.90;44.90;;;;;;6301856;28;20230;-57
2021/06/17 08:50:34;;;;;;;5.88;5.38;;;30.40;45.20;;;;;;6302161;28;20569;-57
2021/06/17 08:53:37;;;;;;;6.00;5.43;;;30.30;45.50;;;;;;6301809;28;20711;-58
2021/06/17 08:56:42;;;;;;;6.20;5.32;;;30.30;45.80;;;;;;6301876;28;20234;-57
2021/06/17 08:59:45;;;;;;;7.23;5.60;;;30.50;45.60;;;;;;6301560;28;20234;-56
2021/06/17 09:02:54;;;;;;;5.80;5.30;;;30.50;45.60;;;;;;6301705;28;20276;-58
2021/06/17 09:05:57;;;;;;;6.00;5.25;;;30.40;45.80;;;;;;6292269;28;20235;-58
2021/06/17 09:09:02;;;;;;;5.90;5.23;;;30.30;46.40;;;;;;6301605;28;20234;-58
2021/06/17 09:12:10;;;;;;;6.83;6.13;;;30.30;47.20;;;;;;6301513;28;20227;-57
2021/06/17 09:15:40;;;;;;;7.22;6.53;;;30.20;47.80;;;;;;6301266;28;20237;-58
2021/06/17 09:18:43;;;;;;;7.38;6.78;;;30.20;48.80;;;;;;6301228;28;20262;-58
2021/06/17 09:22:00;;;;;;;6.70;6.20;;;30.00;49.00;;;;;;6301032;28;20233;-58
2021/06/17 09:25:04;;;;;;;6.63;6.13;;;30.10;49.10;;;;;;6301232;28;20241;-57
2021/06/17 09:28:09;;;;;;;7.30;6.70;;;30.10;48.50;;;;;;6301066;28;20249;-58
2021/06/17 09:31:16;;;;;;;8.17;7.30;;;30.10;48.30;;;;;;6300670;28;20558;-58
2021/06/17 09:34:27;;;;;;;8.40;6.97;;;30.00;49.10;;;;;;6300777;28;20261;-59
2021/06/17 09:37:32;;;;;;;7.20;6.50;;;30.10;47.80;;;;;;6300902;28;20234;-58
2021/06/17 09:40:39;;;;;;;6.80;6.30;;;29.90;48.70;;;;;;6299743;28;20238;-58
2021/06/17 09:43:44;;;;;;;7.60;6.87;;;30.10;47.20;;;;;;6300657;28;20705;-61
2021/06/17 09:47:06;;;;;;;7.17;6.57;;;30.10;47.60;;;;;;6300046;28;20363;-59
2021/06/17 09:50:21;;;;;;;7.67;6.93;;;30.10;47.20;;;;;;6298311;28;20218;-58
2021/06/17 09:53:25;;;;;;;7.80;7.07;;;30.20;47.80;;;;;;6298546;28;20223;-59
2021/06/17 09:56:34;;;;;;;6.00;5.50;;;30.20;48.40;;;;;;6298294;28;20225;-59
2021/06/17 09:59:41;;;;;;;6.73;6.07;;;30.20;47.10;;;;;;6298004;28;20240;-59
2021/06/17 10:02:45;;;;;;;7.10;6.60;;;30.10;46.90;;;;;;6298852;28;20685;-60
2021/06/17 10:05:48;;;;;;;6.90;6.40;;;30.10;47.50;;;;;;6300289;28;20240;-59
2021/06/17 10:08:52;;;;;;;7.00;6.30;;;30.30;46.80;;;;;;6290455;28;20245;-58
2021/06/17 10:11:57;;;;;;;5.77;5.37;;;30.20;46.50;;;;;;6300099;28;20226;-58
2021/06/17 10:15:02;;;;;;;6.83;6.20;;;30.30;44.70;;;;;;6300320;28;20237;-59
2021/06/17 10:18:05;;;;;;;6.57;5.97;;;30.10;46.40;;;;;;6299713;28;20231;-59
2021/06/17 10:21:12;;;;;;;6.63;6.07;;;30.20;45.70;;;;;;6299497;28;20254;-58
2021/06/17 10:24:18;;;;;;;6.53;5.95;;;30.40;45.50;;;;;;6299313;28;20674;-59
2021/06/17 10:27:31;;;;;;;5.30;5.00;;;30.50;45.20;;;;;;6304330;28;20234;-58
2021/06/17 10:30:44;;;;;;;6.70;6.03;;;29.90;46.00;;;;;;6299369;28;20237;-58
2021/06/17 10:33:48;;;;;;;6.60;6.00;;;30.10;46.30;;;;;;6299227;28;20238;-59
2021/06/17 10:37:07;;;;;;;6.47;5.97;;;30.20;46.20;;;;;;6298930;28;20222;-58
2021/06/17 10:40:19;;;;;;;8.13;6.37;;;30.20;46.50;;;;;;6299072;28;20235;-58
2021/06/17 10:43:25;;;;;;;6.77;5.73;;;30.40;46.40;;;;;;6299221;28;20711;-59
2021/06/17 10:46:44;;;;;;;6.65;5.88;;;30.60;46.00;;;;;;6298987;28;20572;-58
2021/06/17 10:50:09;;;;;;;6.50;6.00;;;30.90;45.80;;;;;;6299298;28;20227;-60
2021/06/17 10:53:33;;;;;;;7.35;6.85;;;31.10;45.80;;;;;;6294430;28;20233;-59
2021/06/17 10:56:42;;;;;;;7.32;6.38;;;31.00;45.90;;;;;;6298351;28;20246;-62
2021/06/17 10:59:45;;;;;;;6.57;5.97;;;31.00;45.60;;;;;;6298871;28;20236;-58
2021/06/17 11:02:53;;;;;;;6.80;6.30;;;31.00;46.70;;;;;;6298755;28;20267;-58
2021/06/17 11:05:57;;;;;;;7.10;6.50;;;31.20;46.50;;;;;;6298504;28;20313;-58
2021/06/17 11:09:39;;;;;;;6.93;6.43;;;31.20;46.60;;;;;;6299233;28;20238;-58
2021/06/17 11:12:59;;;;;;;7.50;6.80;;;30.80;47.30;;;;;;6294350;28;20563;-58
2021/06/17 11:16:04;;;;;;;8.10;7.50;;;30.60;48.30;;;;;;6298985;28;20226;-58
2021/06/17 11:19:12;;;;;;;7.80;7.10;;;30.40;48.80;;;;;;6298953;28;20222;-58
2021/06/17 11:22:35;;;;;;;8.43;7.33;;;30.40;48.80;;;;;;6298704;28;20256;-58
2021/06/17 11:25:45;;;;;;;8.25;7.65;;;30.80;48.40;;;;;;6298814;28;20230;-59
2021/06/17 11:28:54;;;;;;;8.07;7.38;;;31.00;48.20;;;;;;6298592;28;20683;-61
2021/06/17 11:31:57;;;;;;;7.43;6.93;;;30.80;48.10;;;;;;6298870;28;20221;-58
2021/06/17 11:35:02;;;;;;;7.60;6.80;;;30.10;49.10;;;;;;6298414;28;20225;-57
2021/06/17 11:38:07;;;;;;;7.38;6.78;;;30.30;49.80;;;;;;6298313;28;20238;-60
2021/06/17 11:41:17;;;;;;;7.32;6.68;;;30.80;49.00;;;;;;6298599;28;20195;-58
2021/06/17 11:44:23;;;;;;;7.32;6.78;;;31.00;47.60;;;;;;6298792;28;20301;-58
2021/06/17 11:47:26;;;;;;;7.25;6.60;;;31.20;46.80;;;;;;6298935;28;20240;-60
2021/06/17 11:50:31;;;;;;;6.47;5.97;;;31.20;46.70;;;;;;6298811;28;20283;-60
2021/06/17 11:53:35;;;;;;;7.18;6.68;;;30.70;47.30;;;;;;6304809;28;20562;-59
2021/06/17 11:56:39;;;;;;;6.80;6.17;;;30.50;47.10;;;;;;6320363;28;20232;-60
2021/06/17 11:59:44;;;;;;;6.50;6.00;;;30.50;47.30;;;;;;6322597;28;20233;-60
2021/06/17 12:02:48;;;;;;;6.25;5.65;;;30.50;47.50;;;;;;6323877;28;20225;-60
2021/06/17 12:05:53;;;;;;;6.45;5.90;;;30.70;47.10;;;;;;6327957;28;20230;-60
2021/06/17 12:09:09;;;;;;;6.57;6.05;;;31.00;46.80;;;;;;6327618;28;20234;-61
2021/06/17 12:12:17;;;;;;;5.97;5.43;;;31.20;45.80;;;;;;6327791;28;20236;-60
2021/06/17 12:15:26;;;;;;;7.00;6.40;;;31.60;45.50;;;;;;6328091;28;20225;-60
2021/06/17 12:18:30;;;;;;;6.22;5.65;;;31.40;44.70;;;;;;6322791;28;20233;-61
2021/06/17 12:21:38;;;;;;;6.28;5.78;;;30.90;45.70;;;;;;6327543;28;20311;-60
2021/06/17 12:24:41;;;;;;;6.30;5.40;;;30.90;46.20;;;;;;6327467;28;20232;-61
2021/06/17 12:27:46;;;;;;;6.43;5.93;;;30.90;46.60;;;;;;6327576;28;20233;-60
2021/06/17 12:30:51;;;;;;;6.20;5.70;;;30.80;46.60;;;;;;6321380;28;20685;-60
2021/06/17 12:34:06;;;;;;;6.45;6.00;;;30.60;47.50;;;;;;6302582;28;20230;-60
2021/06/17 12:37:11;;;;;;;6.72;6.07;;;30.80;47.60;;;;;;6302533;28;20445;-60
2021/06/17 12:40:27;;;;;;;6.65;6.03;;;31.10;47.10;;;;;;6302314;28;20222;-60
2021/06/17 12:43:30;;;;;;;5.72;5.22;;;30.90;46.20;;;;;;6301904;28;20235;-60
2021/06/17 12:46:37;;;;;;;5.87;5.13;;;30.50;46.50;;;;;;6301648;28;20237;-60
2021/06/17 12:53:07;;;;;;;6.00;5.40;;;30.50;46.70;;;;;;6277749;28;20650;-59
2021/06/17 12:56:10;;;;;;;5.80;5.20;;;30.40;46.50;;;;;;6309416;28;20214;-59
2021/06/17 12:59:13;;;;;;;6.70;6.03;;;30.50;46.50;;;;;;6301496;28;20245;-59
2021/06/17 13:02:40;;;;;;;6.87;6.37;;;30.50;46.80;;;;;;6300893;28;20221;-62
2021/06/17 13:05:43;;;;;;;6.33;5.33;;;30.40;45.90;;;;;;6301278;28;20241;-59
2021/06/17 13:08:49;;;;;;;5.60;5.10;;;30.40;46.50;;;;;;6301390;28;20245;-59
2021/06/17 13:12:06;;;;;;;5.63;5.10;;;30.30;46.20;;;;;;6301705;28;20237;-60
2021/06/17 13:15:13;;;;;;;5.93;5.13;;;30.10;46.70;;;;;;6301215;28;20222;-60
2021/06/17 13:18:17;;;;;;;6.90;5.37;;;30.10;46.80;;;;;;6301176;28;20678;-61
2021/06/17 13:21:20;;;;;;;7.03;4.87;;;30.20;45.90;;;;;;6296059;28;20233;-59
2021/06/17 13:24:25;;;;;;;5.40;4.77;;;30.30;45.50;;;;;;6300578;28;20229;-63
2021/06/17 13:27:29;;;;;;;6.13;5.47;;;30.30;45.40;;;;;;6347747;28;20665;-60
2021/06/17 13:30:34;;;;;;;5.20;4.70;;;30.10;45.70;;;;;;6325861;28;20226;-60
2021/06/17 13:33:42;;;;;;;5.28;4.88;;;30.10;45.70;;;;;;6286277;28;20353;-60
2021/06/17 13:36:45;;;;;;;5.68;5.28;;;30.30;45.60;;;;;;6290428;28;20694;-60
2021/06/17 13:39:51;;;;;;;5.80;5.30;;;30.50;45.60;;;;;;6295169;28;20234;-61
2021/06/17 13:42:57;;;;;;;6.07;5.47;;;30.60;44.70;;;;;;6301239;28;20585;-60
2021/06/17 13:46:00;;;;;;;4.80;4.50;;;30.70;44.30;;;;;;6292965;28;20242;-60
2021/06/17 13:49:03;;;;;;;7.27;4.63;;;30.60;44.50;;;;;;6275497;28;20572;-60
2021/06/17 13:52:08;;;;;;;5.28;4.47;;;30.60;44.40;;;;;;6275315;28;20294;-60
2021/06/17 13:55:16;;;;;;;5.13;4.72;;;30.60;44.50;;;;;;6275745;28;20235;-60
2021/06/17 13:58:20;;;;;;;5.53;5.03;;;30.80;44.40;;;;;;6275195;28;20242;-59
2021/06/17 14:01:23;;;;;;;6.15;4.57;;;30.50;44.20;;;;;;6295649;28;20226;-61
2021/06/17 14:04:26;;;;;;;5.90;4.43;;;30.50;44.40;;;;;;6295144;28;20222;-60
2021/06/17 14:07:29;;;;;;;4.82;4.53;;;30.70;44.30;;;;;;6300178;28;20236;-60
2021/06/17 14:10:36;;;;;;;4.60;4.20;;;30.60;43.60;;;;;;6299765;28;20253;-61
2021/06/17 14:13:39;;;;;;;5.32;4.93;;;30.60;43.60;;;;;;6298883;28;20265;-60
2021/06/17 14:16:42;;;;;;;5.70;5.30;;;30.40;44.10;;;;;;6297399;28;20242;-60
2021/06/17 14:19:46;;;;;;;5.57;5.17;;;30.50;44.00;;;;;;6297451;28;20241;-61
2021/06/17 14:22:49;;;;;;;5.57;4.97;;;30.50;44.00;;;;;;6297482;28;20226;-59
2021/06/17 14:25:54;;;;;;;5.40;4.45;;;30.60;43.50;;;;;;6292344;28;20222;-61
2021/06/17 14:28:58;;;;;;;6.68;4.38;;;30.60;43.80;;;;;;6294418;28;20563;-61
2021/06/17 14:32:01;;;;;;;5.03;4.68;;;30.70;43.40;;;;;;6298892;28;20234;-59
2021/06/17 14:35:05;;;;;;;4.95;4.45;;;30.70;43.50;;;;;;6299780;28;20218;-59
2021/06/17 14:38:12;;;;;;;4.78;4.43;;;30.80;43.60;;;;;;6322874;28;20234;-62
2021/06/17 14:41:17;;;;;;;5.18;4.78;;;30.80;43.50;;;;;;6324409;28;20201;-60
2021/06/17 14:44:20;;;;;;;7.95;4.97;;;30.90;43.30;;;;;;6324606;28;20236;-60
2021/06/17 14:47:24;;;;;;;4.97;4.57;;;31.00;43.10;;;;;;6324161;28;20283;-59
2021/06/17 14:50:28;;;;;;;5.75;5.25;;;30.90;43.10;;;;;;6324043;28;20548;-62
2021/06/17 14:53:31;;;;;;;5.05;4.65;;;30.80;43.40;;;;;;6324552;28;20226;-62
2021/06/17 14:56:36;;;;;;;4.15;3.75;;;30.80;43.20;;;;;;6312476;28;20229;-59
2021/06/17 14:59:44;;;;;;;4.75;4.20;;;30.50;43.60;;;;;;6299204;28;20230;-60
2021/06/17 15:02:48;;;;;;;4.77;4.37;;;30.60;44.00;;;;;;6299147;28;20226;-58
2021/06/17 15:05:51;;;;;;;4.93;4.60;;;30.60;43.80;;;;;;6306667;28;20225;-60
2021/06/17 15:08:54;;;;;;;5.20;4.80;;;30.60;43.60;;;;;;6323670;28;20574;-60
2021/06/17 15:11:59;;;;;;;4.40;4.10;;;30.60;43.60;;;;;;6324108;28;20240;-60
2021/06/17 15:15:02;;;;;;;4.72;4.32;;;30.60;43.90;;;;;;6324080;28;20236;-60
2021/06/17 15:18:11;;;;;;;7.00;4.50;;;30.70;43.40;;;;;;6324058;28;20240;-61
2021/06/17 15:21:15;;;;;;;4.63;4.30;;;30.60;43.40;;;;;;6323553;28;20230;-60
2021/06/17 15:24:18;;;;;;;5.50;4.03;;;30.60;43.40;;;;;;6323824;28;20242;-60
2021/06/17 15:27:24;;;;;;;4.57;4.18;;;30.60;43.40;;;;;;6323994;28;20229;-60
2021/06/17 15:30:27;;;;;;;5.50;4.27;;;30.70;43.40;;;;;;6309436;28;20224;-60
2021/06/17 15:33:31;;;;;;;4.70;4.30;;;30.70;43.30;;;;;;6309861;28;20274;-60
2021/06/17 15:36:35;;;;;;;4.57;4.18;;;30.70;43.00;;;;;;6298607;28;20241;-61
2021/06/17 15:39:38;;;;;;;4.70;4.30;;;30.60;43.10;;;;;;6303418;28;20562;-60
2021/06/17 15:42:43;;;;;;;5.35;4.85;;;30.70;43.30;;;;;;6302345;28;20222;-61
2021/06/17 15:45:46;;;;;;;5.15;4.10;;;30.60;43.30;;;;;;6303306;28;20237;-60
2021/06/17 15:48:50;;;;;;;7.40;4.47;;;30.30;43.10;;;;;;6302858;28;20226;-60
2021/06/17 15:51:53;;;;;;;4.47;4.07;;;30.10;44.00;;;;;;6302755;28;20238;-61
2021/06/17 15:54:56;;;;;;;5.30;4.90;;;30.10;44.40;;;;;;6302725;28;20241;-60
2021/06/17 15:58:01;;;;;;;4.70;4.13;;;30.00;44.30;;;;;;6299256;28;20233;-60
2021/06/17 16:01:04;;;;;;;6.33;3.97;;;30.10;44.10;;;;;;6288287;28;20223;-60
2021/06/17 16:04:08;;;;;;;4.00;3.70;;;30.00;43.80;;;;;;6292916;28;20612;-60
2021/06/17 16:07:11;;;;;;;6.10;4.23;;;29.90;44.30;;;;;;6287817;28;20226;-60
2021/06/17 16:10:18;;;;;;;5.13;4.73;;;29.90;44.00;;;;;;6291778;28;20260;-61
2021/06/17 16:13:23;;;;;;;7.40;5.00;;;30.00;44.10;;;;;;6294143;28;20241;-60
2021/06/17 16:16:27;;;;;;;4.03;3.70;;;30.10;43.80;;;;;;6302151;28;20234;-60